createdAt,value
2022-11-05T00:02:14.556Z,101185.17
2022-11-05T00:04:45.120Z,101186.22
2022-11-05T00:07:15.438Z,101187.63
2022-11-05T00:09:45.985Z,101194.62
2022-11-05T00:12:16.590Z,101197.46
2022-11-05T00:14:47.193Z,101199.41
2022-11-05T00:17:17.792Z,101195.59
2022-11-05T00:19:48.388Z,101194.05
2022-11-05T00:22:19.019Z,101195.41
2022-11-05T00:24:49.577Z,101201.18
2022-11-05T00:27:20.279Z,101205.60
2022-11-05T00:29:50.493Z,101202.88
2022-11-05T00:32:21.110Z,101205.60
2022-11-05T00:34:51.416Z,101210.52
2022-11-05T00:37:22.106Z,101211.48
2022-11-05T00:39:52.729Z,101212.82
2022-11-05T00:42:23.224Z,101214.25
2022-11-05T00:44:53.816Z,101212.71
2022-11-05T00:47:24.117Z,101214.18
2022-11-05T00:49:54.662Z,101220.66
2022-11-05T00:52:25.370Z,101218.94
2022-11-05T00:54:55.587Z,101222.10
2022-11-05T00:57:26.203Z,101217.82
2022-11-05T00:59:56.528Z,101216.84
2022-11-05T01:02:27.245Z,101215.60
2022-11-05T01:04:57.749Z,101217.24
2022-11-05T01:07:28.461Z,101220.08
2022-11-05T01:09:58.981Z,101217.47
2022-11-05T01:12:29.614Z,101213.71
2022-11-05T01:15:00.241Z,101213.11
2022-11-05T01:17:30.602Z,101215.82
2022-11-05T01:20:01.126Z,101219.56
2022-11-05T01:22:31.841Z,101223.10
2022-11-05T01:25:02.371Z,101225.61
2022-11-05T01:27:32.998Z,101221.91
2022-11-05T01:30:03.716Z,101222.60
2022-11-05T01:32:34.250Z,101223.65
2022-11-05T01:35:04.840Z,101227.75
2022-11-05T01:37:35.478Z,101233.83
2022-11-05T01:40:06.092Z,101236.64
2022-11-05T01:42:36.773Z,101238.03
2022-11-05T01:45:07.377Z,101237.87
2022-11-05T01:47:38.034Z,101238.30
2022-11-05T01:50:08.657Z,101242.93
2022-11-05T01:52:38.960Z,101243.76
2022-11-05T01:55:09.579Z,101243.35
2022-11-05T01:57:39.753Z,101243.14
2022-11-05T02:00:10.282Z,101245.79
2022-11-05T02:02:41.108Z,101246.70
2022-11-05T02:05:11.209Z,101245.02
2022-11-05T02:07:41.831Z,101243.88
2022-11-05T02:10:12.461Z,101245.11
2022-11-05T02:12:43.120Z,101242.55
2022-11-05T02:15:13.762Z,101244.13
2022-11-05T02:17:44.406Z,101239.80
2022-11-05T02:20:15.030Z,101239.67
2022-11-05T02:22:45.684Z,101239.49
2022-11-05T02:25:16.319Z,101233.29
2022-11-05T02:27:46.979Z,101231.86
2022-11-05T02:30:17.609Z,101231.08
2022-11-05T02:32:48.269Z,101230.70
2022-11-05T02:35:18.893Z,101237.00
2022-11-05T02:37:49.552Z,101234.18
2022-11-05T02:40:20.183Z,101238.81
2022-11-05T02:42:51.025Z,101232.55
2022-11-05T02:45:21.449Z,101236.70
2022-11-05T02:47:52.106Z,101238.65
2022-11-05T02:50:22.728Z,101243.36
2022-11-05T02:52:53.377Z,101245.78
2022-11-05T02:55:23.785Z,101242.94
2022-11-05T02:57:54.400Z,101245.60
2022-11-05T03:00:25.139Z,101242.06
2022-11-05T03:02:55.791Z,101242.82
2022-11-05T03:05:26.423Z,101239.78
2022-11-05T03:07:57.036Z,101238.43
2022-11-05T03:10:27.369Z,101242.14
2022-11-05T03:12:58.044Z,101239.43
2022-11-05T03:15:28.686Z,101240.52
2022-11-05T03:17:59.355Z,101239.35
2022-11-05T03:20:30.005Z,101235.57
2022-11-05T03:23:00.719Z,101235.97
2022-11-05T03:25:31.334Z,101235.96
2022-11-05T03:28:01.650Z,101238.25
2022-11-05T03:30:32.306Z,101237.25
2022-11-05T03:33:02.998Z,101235.24
2022-11-05T03:35:33.622Z,101240.13
2022-11-05T03:38:04.305Z,101243.02
2022-11-05T03:40:34.937Z,101237.73
2022-11-05T03:43:05.597Z,101235.23
2022-11-05T03:45:36.310Z,101237.31
2022-11-05T03:48:07.042Z,101235.12
2022-11-05T03:50:41.312Z,101233.23
2022-11-05T03:53:08.674Z,101235.52
2022-11-05T03:55:38.887Z,101236.17
2022-11-05T03:58:09.560Z,101238.97
2022-11-05T04:00:40.219Z,101249.11
2022-11-05T04:03:11.271Z,101252.48
2022-11-05T04:05:41.578Z,101252.68
2022-11-05T04:08:14.424Z,101257.88
2022-11-05T04:10:43.030Z,101261.28
2022-11-05T04:13:13.961Z,101264.54
2022-11-05T04:15:44.295Z,101262.05
2022-11-05T04:18:14.725Z,101258.21
2022-11-05T04:20:45.359Z,101263.42
2022-11-05T04:23:16.044Z,101265.04
2022-11-05T04:25:46.714Z,101271.27
2022-11-05T04:28:17.449Z,101275.04
2022-11-05T04:30:48.078Z,101272.05
2022-11-05T04:33:18.825Z,101275.57
2022-11-05T04:35:49.446Z,101279.41
2022-11-05T04:38:20.173Z,101281.91
2022-11-05T04:40:50.833Z,101286.73
2022-11-05T04:43:21.787Z,101289.10
2022-11-05T04:45:52.228Z,101288.57
2022-11-05T04:48:23.025Z,101291.39
2022-11-05T04:50:53.635Z,101291.28
2022-11-05T04:53:24.333Z,101293.45
2022-11-05T04:55:55.031Z,101292.63
2022-11-05T04:58:25.744Z,101286.72
2022-11-05T05:00:56.513Z,101288.07
2022-11-05T05:03:27.101Z,101290.68
2022-11-05T05:06:03.377Z,101294.67
2022-11-05T05:08:28.457Z,101296.53
2022-11-05T05:10:59.149Z,101301.89
2022-11-05T05:13:29.549Z,101302.10
2022-11-05T05:16:00.235Z,101299.46
2022-11-05T05:18:30.551Z,101300.69
2022-11-05T05:21:00.968Z,101296.87
2022-11-05T05:23:31.657Z,101301.72
2022-11-05T05:26:02.078Z,101298.94
2022-11-05T05:28:32.765Z,101298.52
2022-11-05T05:31:03.128Z,101300.69
2022-11-05T05:33:33.528Z,101299.27
2022-11-05T05:36:08.496Z,101301.10
2022-11-05T05:38:34.661Z,101299.50
2022-11-05T05:41:05.011Z,101303.57
2022-11-05T05:43:35.713Z,101307.24
2022-11-05T05:46:06.446Z,101311.26
2022-11-05T05:48:37.147Z,101311.69
2022-11-05T05:51:07.866Z,101310.00
2022-11-05T05:53:38.563Z,101315.56
2022-11-05T05:56:09.279Z,101315.29
2022-11-05T05:58:39.690Z,101321.28
2022-11-05T06:01:15.579Z,101321.58
2022-11-05T06:03:40.817Z,101326.18
2022-11-05T06:06:11.188Z,101328.84
2022-11-05T06:08:41.893Z,101334.23
2022-11-05T06:11:12.641Z,101334.60
2022-11-05T06:13:43.311Z,101334.34
2022-11-05T06:16:13.810Z,101334.85
2022-11-05T06:18:44.458Z,101338.45
2022-11-05T06:21:15.272Z,101347.26
2022-11-05T06:23:45.889Z,101345.26
2022-11-05T06:26:16.611Z,101349.95
2022-11-05T06:28:47.316Z,101350.41
2022-11-05T06:31:18.073Z,101353.71
2022-11-05T06:33:48.731Z,101356.59
2022-11-05T06:36:19.167Z,101361.87
2022-11-05T06:38:49.892Z,101364.39
2022-11-05T06:41:20.602Z,101363.51
2022-11-05T06:43:51.294Z,101367.77
2022-11-05T06:46:22.023Z,101366.29
2022-11-05T06:48:52.730Z,101367.21
2022-11-05T06:51:23.454Z,101369.24
2022-11-05T06:53:54.169Z,101372.12
2022-11-05T06:56:24.890Z,101375.04
2022-11-05T06:58:54.974Z,101379.69
2022-11-05T07:01:25.848Z,101377.22
2022-11-05T07:03:56.425Z,101382.01
2022-11-05T07:06:27.131Z,101383.36
2022-11-05T07:08:57.837Z,101385.17
2022-11-05T07:11:28.556Z,101378.35
2022-11-05T07:13:59.378Z,101380.10
2022-11-05T07:16:30.098Z,101381.33
2022-11-05T07:19:00.692Z,101388.45
2022-11-05T07:21:31.401Z,101389.46
2022-11-05T07:24:02.105Z,101386.48
2022-11-05T07:26:34.709Z,101388.66
2022-11-05T07:29:02.908Z,101394.94
2022-11-05T07:31:33.098Z,101400.46
2022-11-05T07:34:03.138Z,101401.02
2022-11-05T07:36:33.289Z,101398.77
2022-11-05T07:39:03.988Z,101399.17
2022-11-05T07:41:34.706Z,101404.01
2022-11-05T07:44:05.384Z,101400.82
2022-11-05T07:46:36.098Z,101399.80
2022-11-05T07:49:06.154Z,101400.97
2022-11-05T07:51:36.859Z,101400.12
2022-11-05T07:54:07.541Z,101403.77
2022-11-05T07:56:38.352Z,101401.93
2022-11-05T07:59:08.921Z,101403.29
2022-11-05T08:01:39.880Z,101402.87
2022-11-05T08:04:10.316Z,101406.41
2022-11-05T08:06:41.001Z,101412.42
2022-11-05T08:09:11.735Z,101410.76
2022-11-05T08:11:42.375Z,101410.98
2022-11-05T08:14:12.878Z,101405.75
2022-11-05T08:16:43.206Z,101407.48
2022-11-05T08:19:13.862Z,101407.67
2022-11-05T08:21:44.192Z,101406.01
2022-11-05T08:24:14.694Z,101410.15
2022-11-05T08:26:45.071Z,101410.73
2022-11-05T08:29:15.846Z,101415.53
2022-11-05T08:31:46.469Z,101420.25
2022-11-05T08:34:17.082Z,101421.06
2022-11-05T08:36:47.806Z,101427.68
2022-11-05T08:39:18.451Z,101428.12
2022-11-05T08:41:49.143Z,101426.76
2022-11-05T08:44:19.234Z,101425.68
2022-11-05T08:46:49.613Z,101426.79
2022-11-05T08:49:20.280Z,101431.39
2022-11-05T08:51:50.966Z,101431.24
2022-11-05T08:54:21.784Z,101432.88
2022-11-05T08:56:52.277Z,101431.63
2022-11-05T08:59:22.961Z,101429.81
2022-11-05T09:01:53.761Z,101435.07
2022-11-05T09:04:24.334Z,101438.03
2022-11-05T09:06:54.735Z,101437.43
2022-11-05T09:09:25.458Z,101433.71
2022-11-05T09:12:11.567Z,101434.71
2022-11-05T09:14:26.860Z,101432.45
2022-11-05T09:16:57.462Z,101430.62
2022-11-05T09:19:27.839Z,101432.81
2022-11-05T09:21:57.886Z,101436.23
2022-11-05T09:24:28.546Z,101438.48
2022-11-05T09:26:59.259Z,101439.22
2022-11-05T09:29:29.272Z,101441.67
2022-11-05T09:31:59.932Z,101442.21
2022-11-05T09:34:30.573Z,101443.21
2022-11-05T09:37:01.235Z,101444.99
2022-11-05T09:39:31.905Z,101447.10
2022-11-05T09:42:02.552Z,101449.80
2022-11-05T09:44:33.272Z,101450.03
2022-11-05T09:47:03.601Z,101456.86
2022-11-05T09:49:34.014Z,101457.04
2022-11-05T09:52:04.666Z,101452.02
2022-11-05T09:54:35.321Z,101451.01
2022-11-05T09:57:05.623Z,101455.00
2022-11-05T09:59:36.257Z,101455.92
2022-11-05T10:02:06.762Z,101450.85
2022-11-05T10:04:37.300Z,101451.73
2022-11-05T10:07:07.297Z,101455.59
2022-11-05T10:09:37.652Z,101454.50
2022-11-05T10:12:08.032Z,101458.06
2022-11-05T10:14:38.394Z,101456.06
2022-11-05T10:17:08.946Z,101458.96
2022-11-05T10:19:39.280Z,101452.98
2022-11-05T10:22:09.916Z,101456.72
2022-11-05T10:24:40.536Z,101458.94
2022-11-05T10:27:10.881Z,101460.09
2022-11-05T10:29:41.141Z,101461.25
2022-11-05T10:32:11.219Z,101459.66
2022-11-05T10:34:41.831Z,101460.57
2022-11-05T10:37:12.142Z,101459.83
2022-11-05T10:39:42.478Z,101458.87
2022-11-05T10:42:13.032Z,101457.05
2022-11-05T10:44:43.471Z,101460.69
2022-11-05T10:47:13.992Z,101460.10
2022-11-05T10:49:44.577Z,101457.51
2022-11-05T10:52:15.170Z,101458.30
2022-11-05T10:54:45.759Z,101459.37
2022-11-05T10:57:16.363Z,101459.37
2022-11-05T10:59:46.936Z,101461.31
2022-11-05T11:02:17.639Z,101464.67
2022-11-05T11:04:48.101Z,101467.64
2022-11-05T11:07:18.695Z,101464.79
2022-11-05T11:09:49.334Z,101464.06
2022-11-05T11:12:19.979Z,101468.10
2022-11-05T11:14:50.450Z,101464.59
2022-11-05T11:17:21.045Z,101463.38
2022-11-05T11:19:51.614Z,101460.84
2022-11-05T11:22:22.201Z,101463.85
2022-11-05T11:24:52.808Z,101466.79
2022-11-05T11:27:23.366Z,101467.05
2022-11-05T11:29:53.971Z,101465.94
2022-11-05T11:32:24.518Z,101467.25
2022-11-05T11:34:55.133Z,101467.48
2022-11-05T11:37:25.301Z,101465.18
2022-11-05T11:39:55.855Z,101467.80
2022-11-05T11:42:26.417Z,101470.73
2022-11-05T11:44:57.045Z,101471.24
2022-11-05T11:47:27.557Z,101467.53
2022-11-05T11:49:57.823Z,101469.57
2022-11-05T11:52:28.401Z,101468.26
2022-11-05T11:54:58.953Z,101462.90
2022-11-05T11:57:29.256Z,101464.60
2022-11-05T12:00:08.911Z,101465.38
2022-11-05T12:02:30.657Z,101463.52
2022-11-05T12:05:01.148Z,101463.89
2022-11-05T12:07:31.815Z,101459.18
2022-11-05T12:10:02.273Z,101456.62
2022-11-05T12:12:32.835Z,101455.57
2022-11-05T12:15:03.395Z,101456.22
2022-11-05T12:17:33.945Z,101453.76
2022-11-05T12:20:04.487Z,101452.80
2022-11-05T12:22:34.770Z,101454.20
2022-11-05T12:25:05.417Z,101457.49
2022-11-05T12:27:35.885Z,101453.81
2022-11-05T12:30:06.526Z,101456.60
2022-11-05T12:32:37.077Z,101458.08
2022-11-05T12:35:07.525Z,101457.15
2022-11-05T12:37:38.078Z,101454.77
2022-11-05T12:40:08.686Z,101454.20
2022-11-05T12:42:39.173Z,101455.07
2022-11-05T12:45:09.717Z,101448.81
2022-11-05T12:47:40.272Z,101451.09
2022-11-05T12:50:11.021Z,101445.65
2022-11-05T12:52:41.374Z,101443.55
2022-11-05T12:55:11.618Z,101443.30
2022-11-05T12:57:42.175Z,101444.80
2022-11-05T13:00:13.040Z,101444.25
2022-11-05T13:02:43.414Z,101445.68
2022-11-05T13:05:13.896Z,101449.86
2022-11-05T13:07:44.374Z,101454.60
2022-11-05T13:10:14.952Z,101458.81
2022-11-05T13:12:45.467Z,101456.08
2022-11-05T13:15:16.101Z,101458.32
2022-11-05T13:17:46.587Z,101455.37
2022-11-05T13:20:17.850Z,101452.96
2022-11-05T13:22:47.682Z,101455.85
2022-11-05T13:25:18.329Z,101462.34
2022-11-05T13:27:48.416Z,101457.12
2022-11-05T13:30:18.675Z,101455.18
2022-11-05T13:32:48.963Z,101450.54
2022-11-05T13:35:19.524Z,101449.44
2022-11-05T13:37:50.020Z,101443.40
2022-11-05T13:40:20.273Z,101437.46
2022-11-05T13:42:50.746Z,101441.92
2022-11-05T13:45:21.274Z,101437.68
2022-11-05T13:47:51.555Z,101431.18
2022-11-05T13:50:22.088Z,101428.11
2022-11-05T13:52:52.625Z,101425.92
2022-11-05T13:55:23.169Z,101430.47
2022-11-05T13:57:53.737Z,101430.37
2022-11-05T14:00:24.324Z,101428.99
2022-11-05T14:02:54.842Z,101423.13
2022-11-05T14:05:25.460Z,101419.15
2022-11-05T14:07:55.928Z,101419.31
2022-11-05T14:10:26.521Z,101417.08
2022-11-05T14:12:57.024Z,101415.59
2022-11-05T14:15:27.572Z,101418.24
2022-11-05T14:17:57.880Z,101413.85
2022-11-05T14:20:28.411Z,101416.97
2022-11-05T14:22:58.623Z,101420.25
2022-11-05T14:25:29.165Z,101415.46
2022-11-05T14:27:59.720Z,101412.50
2022-11-05T14:30:30.266Z,101407.52
2022-11-05T14:33:00.840Z,101403.93
2022-11-05T14:35:31.380Z,101402.22
2022-11-05T14:38:01.940Z,101398.26
2022-11-05T14:40:32.282Z,101394.41
2022-11-05T14:43:02.863Z,101391.76
2022-11-05T14:45:33.416Z,101387.98
2022-11-05T14:48:03.991Z,101385.60
2022-11-05T14:50:34.529Z,101389.91
2022-11-05T14:53:05.094Z,101393.66
2022-11-05T14:55:35.352Z,101390.80
2022-11-05T14:58:05.907Z,101393.60
2022-11-05T15:00:36.476Z,101395.39
2022-11-05T15:03:07.043Z,101400.33
2022-11-05T15:05:37.235Z,101400.47
2022-11-05T15:08:07.906Z,101405.62
2022-11-05T15:10:38.395Z,101402.60
2022-11-05T15:13:08.519Z,101409.09
2022-11-05T15:15:38.983Z,101411.17
2022-11-05T15:18:09.553Z,101417.51
2022-11-05T15:20:40.371Z,101416.07
2022-11-05T15:23:10.556Z,101419.12
2022-11-05T15:25:40.653Z,101410.22
2022-11-05T15:28:11.011Z,101413.25
2022-11-05T15:30:41.713Z,101413.64
2022-11-05T15:33:12.487Z,101417.24
2022-11-05T15:35:42.777Z,101417.13
2022-11-05T15:38:13.302Z,101414.09
2022-11-05T15:40:43.528Z,101415.89
2022-11-05T15:43:14.519Z,101415.74
2022-11-05T15:45:44.813Z,101414.08
2022-11-05T15:48:15.256Z,101420.18
2022-11-05T15:50:45.952Z,101422.35
2022-11-05T15:53:37.517Z,101420.63
2022-11-05T15:55:47.024Z,101417.95
2022-11-05T15:58:17.604Z,101411.51
2022-11-05T16:00:47.653Z,101418.32
2022-11-05T16:03:18.232Z,101416.29
2022-11-05T16:05:48.820Z,101419.54
2022-11-05T16:08:19.473Z,101413.94
2022-11-05T16:10:49.991Z,101418.16
2022-11-05T16:13:20.307Z,101420.40
2022-11-05T16:15:50.801Z,101424.96
2022-11-05T16:18:21.385Z,101426.53
2022-11-05T16:20:51.796Z,101424.77
2022-11-05T16:23:22.278Z,101428.88
2022-11-05T16:25:52.889Z,101426.27
2022-11-05T16:28:23.247Z,101423.83
2022-11-05T16:30:54.124Z,101422.75
2022-11-05T16:33:24.361Z,101427.63
2022-11-05T16:35:54.558Z,101426.40
2022-11-05T16:38:25.263Z,101427.21
2022-11-05T16:40:55.935Z,101430.34
2022-11-05T16:43:26.106Z,101431.73
2022-11-05T16:45:56.811Z,101426.79
2022-11-05T16:48:26.757Z,101428.46
2022-11-05T16:50:57.358Z,101427.21
2022-11-05T16:53:27.611Z,101425.09
2022-11-05T16:55:57.938Z,101424.39
2022-11-05T16:58:28.534Z,101421.57
2022-11-05T17:00:58.912Z,101423.06
2022-11-05T17:03:29.441Z,101423.03
2022-11-05T17:06:00.108Z,101418.99
2022-11-05T17:08:30.619Z,101415.11
2022-11-05T17:11:01.195Z,101411.89
2022-11-05T17:13:31.781Z,101410.62
2022-11-05T17:16:02.352Z,101407.81
2022-11-05T17:18:32.936Z,101400.51
2022-11-05T17:21:03.577Z,101397.32
2022-11-05T17:23:34.105Z,101396.43
2022-11-05T17:26:04.689Z,101389.06
2022-11-05T17:28:35.286Z,101389.16
2022-11-05T17:31:05.881Z,101391.19
2022-11-05T17:33:36.468Z,101395.91
2022-11-05T17:36:07.306Z,101391.18
2022-11-05T17:38:37.365Z,101397.19
2022-11-05T17:41:07.961Z,101394.42
2022-11-05T17:43:38.541Z,101396.72
2022-11-05T17:46:09.187Z,101390.73
2022-11-05T17:48:39.774Z,101391.87
2022-11-05T17:51:10.465Z,101384.43
2022-11-05T17:53:40.938Z,101389.30
2022-11-05T17:56:11.566Z,101390.94
2022-11-05T17:58:42.112Z,101390.23
2022-11-05T18:01:12.499Z,101388.21
2022-11-05T18:03:42.982Z,101390.90
2022-11-05T18:06:13.329Z,101389.86
2022-11-05T18:08:43.575Z,101395.02
2022-11-05T18:11:13.797Z,101401.54
2022-11-05T18:13:44.390Z,101406.36
2022-11-05T18:16:14.716Z,101399.48
2022-11-05T18:18:45.002Z,101390.39
2022-11-05T18:21:15.577Z,101387.25
2022-11-05T18:23:46.158Z,101388.16
2022-11-05T18:26:16.401Z,101387.52
2022-11-05T18:28:46.702Z,101384.80
2022-11-05T18:31:18.513Z,101386.52
2022-11-05T18:33:47.605Z,101385.53
2022-11-05T18:36:18.226Z,101383.98
2022-11-05T18:38:48.444Z,101381.41
2022-11-05T18:41:19.045Z,101380.00
2022-11-05T18:43:49.640Z,101380.15
2022-11-05T18:46:51.102Z,101389.61
2022-11-05T18:48:50.559Z,101384.30
2022-11-05T18:51:20.840Z,101386.83
2022-11-05T18:53:51.075Z,101388.72
2022-11-05T18:56:21.744Z,101388.58
2022-11-05T18:59:08.418Z,101382.35
2022-11-05T19:01:22.502Z,101382.34
2022-11-05T19:03:52.509Z,101385.15
2022-11-05T19:06:23.112Z,101387.64
2022-11-05T19:08:53.687Z,101383.61
2022-11-05T19:11:24.303Z,101384.47
2022-11-05T19:13:54.873Z,101376.82
2022-11-05T19:16:25.480Z,101371.88
2022-11-05T19:18:56.020Z,101374.05
2022-11-05T19:21:26.440Z,101370.15
2022-11-05T19:23:56.972Z,101371.27
2022-11-05T19:26:29.016Z,101373.14
2022-11-05T19:28:57.789Z,101368.67
2022-11-05T19:31:28.583Z,101368.62
2022-11-05T19:33:59.269Z,101362.87
2022-11-05T19:36:29.508Z,101361.32
2022-11-05T19:39:00.086Z,101364.55
2022-11-05T19:41:30.643Z,101363.06
2022-11-05T19:44:01.200Z,101370.38
2022-11-05T19:46:31.777Z,101376.27
2022-11-05T19:49:02.331Z,101377.48
2022-11-05T19:51:32.976Z,101374.84
2022-11-05T19:54:03.118Z,101363.00
2022-11-05T19:56:33.779Z,101360.04
2022-11-05T19:59:03.700Z,101362.19
2022-11-05T20:01:34.580Z,101358.11
2022-11-05T20:04:04.994Z,101351.75
2022-11-05T20:06:35.481Z,101342.83
2022-11-05T20:09:20.949Z,101342.71
2022-11-05T20:11:36.607Z,101347.80
2022-11-05T20:14:07.102Z,101351.91
2022-11-05T20:16:37.715Z,101349.58
2022-11-05T20:19:07.872Z,101352.56
2022-11-05T20:21:38.469Z,101356.00
2022-11-05T20:24:08.999Z,101360.77
2022-11-05T20:26:39.559Z,101356.68
2022-11-05T20:29:09.758Z,101361.82
2022-11-05T20:31:40.528Z,101363.94
2022-11-05T20:34:10.666Z,101361.97
2022-11-05T20:36:41.282Z,101363.25
2022-11-05T20:39:11.819Z,101360.77
2022-11-05T20:41:42.417Z,101354.24
2022-11-05T20:44:13.097Z,101347.16
2022-11-05T20:46:43.715Z,101337.82
2022-11-05T20:49:14.212Z,101335.31
2022-11-05T20:51:45.071Z,101337.15
2022-11-05T20:54:15.611Z,101337.36
2022-11-05T20:56:46.459Z,101341.43
2022-11-05T20:59:17.010Z,101342.20
2022-11-05T21:01:47.673Z,101342.19
2022-11-05T21:04:18.103Z,101341.10
2022-11-05T21:06:48.666Z,101344.28
2022-11-05T21:09:19.206Z,101346.00
2022-11-05T21:11:49.835Z,101343.35
2022-11-05T21:14:20.327Z,101343.38
2022-11-05T21:16:51.002Z,101346.62
2022-11-05T21:19:21.435Z,101343.41
2022-11-05T21:21:52.002Z,101345.80
2022-11-05T21:24:22.671Z,101348.62
2022-11-05T21:26:53.138Z,101342.42
2022-11-05T21:29:23.700Z,101340.00
2022-11-05T21:31:54.295Z,101342.38
2022-11-05T21:34:24.831Z,101339.05
2022-11-05T21:36:55.436Z,101338.30
2022-11-05T21:39:25.959Z,101337.56
2022-11-05T21:41:56.570Z,101339.89
2022-11-05T21:44:27.067Z,101342.32
2022-11-05T21:46:57.763Z,101334.80
2022-11-05T21:49:28.375Z,101334.06
2022-11-05T21:51:58.797Z,101331.50
2022-11-05T21:54:29.286Z,101333.79
2022-11-05T21:56:59.840Z,101328.59
2022-11-05T21:59:30.386Z,101327.18
2022-11-05T22:02:01.330Z,101322.22
2022-11-05T22:04:31.508Z,101315.64
2022-11-05T22:07:02.104Z,101312.09
2022-11-05T22:09:32.610Z,101310.09
2022-11-05T22:12:02.931Z,101311.34
2022-11-05T22:14:33.461Z,101310.15
2022-11-05T22:17:04.042Z,101309.96
2022-11-05T22:19:34.517Z,101314.73
2022-11-05T22:22:05.252Z,101315.01
2022-11-05T22:24:35.592Z,101311.30
2022-11-05T22:27:05.871Z,101305.62
2022-11-05T22:29:36.434Z,101302.71
2022-11-05T22:32:06.982Z,101293.79
2022-11-05T22:34:37.527Z,101301.29
2022-11-05T22:37:08.097Z,101303.08
2022-11-05T22:39:38.644Z,101300.22
2022-11-05T22:42:09.128Z,101289.83
2022-11-05T22:44:39.141Z,101284.70
2022-11-05T22:47:09.719Z,101283.46
2022-11-05T22:49:39.711Z,101283.74
2022-11-05T22:52:10.370Z,101287.73
2022-11-05T22:54:40.506Z,101282.86
2022-11-05T22:57:10.803Z,101286.39
2022-11-05T22:59:41.384Z,101278.93
2022-11-05T23:02:12.118Z,101281.98
2022-11-05T23:04:42.738Z,101281.96
2022-11-05T23:07:12.838Z,101268.22
2022-11-05T23:09:43.414Z,101273.20
2022-11-05T23:12:14.012Z,101263.79
2022-11-05T23:14:44.243Z,101259.13
2022-11-05T23:17:14.836Z,101259.90
2022-11-05T23:19:45.382Z,101263.74
2022-11-05T23:22:15.963Z,101259.12
2022-11-05T23:24:46.549Z,101257.64
2022-11-05T23:27:17.117Z,101254.29
2022-11-05T23:29:47.693Z,101249.17
2022-11-05T23:32:18.281Z,101248.92
2022-11-05T23:34:48.837Z,101246.88
2022-11-05T23:37:19.159Z,101242.13
2022-11-05T23:39:49.744Z,101233.86
2022-11-05T23:42:20.329Z,101235.54
2022-11-05T23:44:50.913Z,101231.78
2022-11-05T23:47:21.517Z,101236.21
2022-11-05T23:49:52.104Z,101230.71
2022-11-05T23:52:22.760Z,101228.65
2022-11-05T23:54:53.288Z,101226.06
2022-11-05T23:57:23.894Z,101227.01
2022-11-05T23:59:54.545Z,101225.61
